createdAt,value
2022-11-12T00:00:56.700Z,8.50
2022-11-12T00:03:43.474Z,8.10
2022-11-12T00:06:30.019Z,8.20
2022-11-12T00:09:18.159Z,9.33
2022-11-12T00:12:06.447Z,9.37
2022-11-12T00:14:53.010Z,8.37
2022-11-12T00:17:39.784Z,7.70
2022-11-12T00:20:29.206Z,9.53
2022-11-12T00:23:16.277Z,8.90
2022-11-12T00:26:05.300Z,9.40
2022-11-12T00:28:52.064Z,9.77
2022-11-12T00:31:39.223Z,7.77
2022-11-12T00:34:25.856Z,8.67
2022-11-12T00:37:12.597Z,7.37
2022-11-12T00:39:59.386Z,8.43
2022-11-12T00:42:47.349Z,7.60
2022-11-12T00:45:34.038Z,8.40
2022-11-12T00:48:20.602Z,7.07
2022-11-12T00:51:07.396Z,7.97
2022-11-12T00:53:54.258Z,7.60
2022-11-12T00:56:50.320Z,6.37
2022-11-12T00:59:39.106Z,6.53
2022-11-12T01:02:26.226Z,7.30
2022-11-12T01:05:21.782Z,8.10
2022-11-12T01:08:09.408Z,7.00
2022-11-12T01:10:56.489Z,7.60
2022-11-12T01:13:46.303Z,8.47
2022-11-12T01:16:43.052Z,7.80
2022-11-12T01:19:30.444Z,7.37
2022-11-12T01:22:19.946Z,8.97
2022-11-12T01:25:10.454Z,8.17
2022-11-12T01:28:00.820Z,8.60
2022-11-12T01:30:50.370Z,7.80
2022-11-12T01:33:43.527Z,8.07
2022-11-12T01:36:36.768Z,8.37
2022-11-12T01:39:24.781Z,7.30
2022-11-12T01:42:13.409Z,7.53
2022-11-12T01:45:03.526Z,6.97
2022-11-12T01:47:56.372Z,7.27
2022-11-12T01:50:46.906Z,8.10
2022-11-12T01:53:40.376Z,7.40
2022-11-12T01:56:30.709Z,7.93
2022-11-12T01:59:23.833Z,7.80
2022-11-12T02:02:10.953Z,8.47
2022-11-12T02:04:58.149Z,8.33
2022-11-12T02:07:48.605Z,8.40
2022-11-12T02:10:36.592Z,9.77
2022-11-12T02:13:41.168Z,9.00
2022-11-12T02:16:29.526Z,8.37
2022-11-12T02:19:18.065Z,9.83
2022-11-12T02:22:06.269Z,9.40
2022-11-12T02:24:53.041Z,9.37
2022-11-12T02:27:41.212Z,9.30
2022-11-12T02:30:35.865Z,9.00
2022-11-12T02:33:22.503Z,8.87
2022-11-12T02:36:09.428Z,8.50
2022-11-12T02:38:57.444Z,7.87
2022-11-12T02:41:43.876Z,8.03
2022-11-12T02:44:31.189Z,7.77
2022-11-12T02:47:17.987Z,8.90
2022-11-12T02:50:04.833Z,9.30
2022-11-12T02:52:51.434Z,9.27
2022-11-12T02:55:39.714Z,8.77
2022-11-12T02:58:26.695Z,9.67
2022-11-12T03:01:13.869Z,9.53
2022-11-12T03:04:01.185Z,8.90
2022-11-12T03:06:48.141Z,11.07
2022-11-12T03:09:34.849Z,9.47
2022-11-12T03:12:22.861Z,8.63
2022-11-12T03:15:10.388Z,9.80
2022-11-12T03:17:58.603Z,10.03
2022-11-12T03:20:45.087Z,9.77
2022-11-12T03:23:33.870Z,9.60
2022-11-12T03:26:22.353Z,9.13
2022-11-12T03:29:10.517Z,10.20
2022-11-12T03:31:57.082Z,9.60
2022-11-12T03:34:43.669Z,8.83
2022-11-12T03:37:30.203Z,9.20
2022-11-12T03:40:17.481Z,9.43
2022-11-12T03:43:03.926Z,8.23
2022-11-12T03:45:51.893Z,8.60
2022-11-12T03:48:39.589Z,10.17
2022-11-12T03:51:26.330Z,10.30
2022-11-12T03:54:12.948Z,9.50
2022-11-12T03:56:59.491Z,8.07
2022-11-12T03:59:46.059Z,9.67
2022-11-12T04:02:36.620Z,8.37
2022-11-12T04:05:41.486Z,9.13
2022-11-12T04:08:39.688Z,9.83
2022-11-12T04:11:29.600Z,8.00
2022-11-12T04:14:16.252Z,8.50
2022-11-12T04:17:19.867Z,10.77
2022-11-12T04:20:27.654Z,7.97
2022-11-12T04:23:17.479Z,12.93
2022-11-12T04:26:24.113Z,8.60
2022-11-12T04:29:27.746Z,10.47
2022-11-12T04:32:14.739Z,10.13
2022-11-12T04:35:01.483Z,7.90
2022-11-12T04:37:49.619Z,8.30
2022-11-12T04:40:53.350Z,8.20
2022-11-12T04:43:57.111Z,8.80
2022-11-12T04:46:43.395Z,10.60
2022-11-12T04:49:30.328Z,8.20
2022-11-12T04:52:17.445Z,7.30
2022-11-12T04:55:06.271Z,10.33
2022-11-12T04:57:57.605Z,7.20
2022-11-12T05:00:47.199Z,7.37
2022-11-12T05:03:33.905Z,7.73
2022-11-12T05:06:39.747Z,6.27
2022-11-12T05:09:28.149Z,5.80
2022-11-12T05:12:19.013Z,5.07
2022-11-12T05:15:06.446Z,7.10
2022-11-12T05:17:53.500Z,6.27
2022-11-12T05:20:39.690Z,5.20
2022-11-12T05:23:25.898Z,6.27
2022-11-12T05:26:12.196Z,6.70
2022-11-12T05:28:59.873Z,6.67
2022-11-12T05:31:46.588Z,6.70
2022-11-12T05:34:33.006Z,6.60
2022-11-12T05:37:19.338Z,6.90
2022-11-12T05:40:06.507Z,6.60
2022-11-12T05:42:52.616Z,8.23
2022-11-12T05:45:43.488Z,6.90
2022-11-12T05:48:30.035Z,7.83
2022-11-12T05:51:16.729Z,6.43
2022-11-12T05:54:03.409Z,6.40
2022-11-12T05:56:49.658Z,6.33
2022-11-12T05:59:35.850Z,7.60
2022-11-12T06:02:23.531Z,6.70
2022-11-12T06:05:10.453Z,7.70
2022-11-12T06:07:56.767Z,7.17
2022-11-12T06:10:43.097Z,7.10
2022-11-12T06:13:29.349Z,7.30
2022-11-12T06:16:15.511Z,7.40
2022-11-12T06:19:03.145Z,7.17
2022-11-12T06:21:49.827Z,8.70
2022-11-12T06:24:36.572Z,7.17
2022-11-12T06:27:23.962Z,8.27
2022-11-12T06:30:11.277Z,7.43
2022-11-12T06:32:57.740Z,8.00
2022-11-12T06:35:45.691Z,8.77
2022-11-12T06:38:32.333Z,8.03
2022-11-12T06:41:18.676Z,8.30
2022-11-12T06:44:05.531Z,7.93
2022-11-12T06:46:51.918Z,7.20
2022-11-12T06:49:38.409Z,8.43
2022-11-12T06:52:26.624Z,6.83
2022-11-12T06:55:13.143Z,7.97
2022-11-12T06:57:59.254Z,7.97
2022-11-12T07:00:45.640Z,8.03
2022-11-12T07:03:31.785Z,7.57
2022-11-12T07:06:20.205Z,9.90
2022-11-12T07:09:08.170Z,7.20
2022-11-12T07:11:54.819Z,7.77
2022-11-12T07:14:40.960Z,8.00
2022-11-12T07:17:26.875Z,7.83
2022-11-12T07:20:13.406Z,8.27
2022-11-12T07:23:02.035Z,7.90
2022-11-12T07:25:56.655Z,6.93
2022-11-12T07:28:43.545Z,7.37
2022-11-12T07:31:29.746Z,6.83
2022-11-12T07:34:15.789Z,8.20
2022-11-12T07:37:01.846Z,7.90
2022-11-12T07:39:48.171Z,6.30
2022-11-12T07:42:36.614Z,7.33
2022-11-12T07:45:23.033Z,6.77
2022-11-12T07:48:09.341Z,7.87
2022-11-12T07:51:01.670Z,9.87
2022-11-12T07:53:49.311Z,7.97
2022-11-12T07:56:35.412Z,8.37
2022-11-12T07:59:23.100Z,8.13
2022-11-12T08:02:11.105Z,7.83
2022-11-12T08:04:57.457Z,7.23
2022-11-12T08:07:43.935Z,7.30
2022-11-12T08:10:30.678Z,6.30
2022-11-12T08:13:16.732Z,7.00
2022-11-12T08:16:04.406Z,5.10
2022-11-12T08:18:51.023Z,4.27
2022-11-12T08:21:37.318Z,6.17
2022-11-12T08:24:23.710Z,6.40
2022-11-12T08:27:09.923Z,6.07
2022-11-12T08:29:55.978Z,5.40
2022-11-12T08:32:44.060Z,5.57
2022-11-12T08:35:32.898Z,5.73
2022-11-12T08:38:19.203Z,5.70
2022-11-12T08:41:07.766Z,5.10
2022-11-12T08:43:54.078Z,6.07
2022-11-12T08:46:40.376Z,5.80
2022-11-12T08:49:29.070Z,5.10
2022-11-12T08:52:15.174Z,5.00
2022-11-12T08:55:01.328Z,6.60
2022-11-12T08:57:47.460Z,5.73
2022-11-12T09:00:35.951Z,6.17
2022-11-12T09:03:24.318Z,7.23
2022-11-12T09:06:12.306Z,5.97
2022-11-12T09:08:58.943Z,6.97
2022-11-12T09:11:45.000Z,6.57
2022-11-12T09:14:31.258Z,6.03
2022-11-12T09:17:17.391Z,5.50
2022-11-12T09:20:03.774Z,5.73
2022-11-12T09:22:51.219Z,5.37
2022-11-12T09:25:37.647Z,5.10
2022-11-12T09:28:24.437Z,5.03
2022-11-12T09:31:10.992Z,5.60
2022-11-12T09:33:57.028Z,5.60
2022-11-12T09:36:43.114Z,6.63
2022-11-12T09:39:30.688Z,7.53
2022-11-12T09:42:20.692Z,6.57
2022-11-12T09:45:14.871Z,7.20
2022-11-12T09:48:07.572Z,7.80
2022-11-12T09:51:00.037Z,7.23
2022-11-12T09:53:51.686Z,6.13
2022-11-12T09:56:39.112Z,7.43
2022-11-12T09:59:29.972Z,8.20
2022-11-12T10:02:30.245Z,9.43
2022-11-12T10:05:26.529Z,8.30
2022-11-12T10:08:28.612Z,7.47
2022-11-12T10:12:02.836Z,7.57
2022-11-12T10:15:32.528Z,8.83
2022-11-12T10:18:30.376Z,8.70
2022-11-12T10:21:28.328Z,9.47
2022-11-12T10:24:14.544Z,9.10
2022-11-12T10:27:00.778Z,8.13
2022-11-12T10:29:53.246Z,9.60
2022-11-12T10:32:44.246Z,9.07
2022-11-12T10:35:30.538Z,9.33
2022-11-12T10:38:24.349Z,8.77
2022-11-12T10:41:21.938Z,8.77
2022-11-12T10:44:19.278Z,8.67
2022-11-12T10:47:25.923Z,9.63
2022-11-12T10:50:20.216Z,9.33
2022-11-12T10:53:08.175Z,10.00
2022-11-12T10:55:59.330Z,8.50
2022-11-12T10:58:45.902Z,8.60
2022-11-12T11:01:35.668Z,8.93
2022-11-12T11:04:32.582Z,9.50
2022-11-12T11:07:24.614Z,9.07
2022-11-12T11:10:24.363Z,10.30
2022-11-12T11:13:19.621Z,11.60
2022-11-12T11:16:08.813Z,9.77
2022-11-12T11:19:00.334Z,10.80
2022-11-12T11:22:21.063Z,10.30
2022-11-12T11:25:19.682Z,10.43
2022-11-12T11:28:18.974Z,10.37
2022-11-12T11:31:18.789Z,11.93
2022-11-12T11:34:17.768Z,11.10
2022-11-12T11:37:18.608Z,11.97
2022-11-12T11:40:13.948Z,13.07
2022-11-12T11:43:17.574Z,12.67
2022-11-12T11:46:14.235Z,11.17
2022-11-12T11:49:11.935Z,11.47
2022-11-12T11:52:07.454Z,12.37
2022-11-12T11:55:05.541Z,12.83
2022-11-12T11:57:58.761Z,12.33
2022-11-12T12:00:53.946Z,12.17
2022-11-12T12:03:54.523Z,12.70
2022-11-12T12:06:51.563Z,11.50
2022-11-12T12:09:49.279Z,11.83
2022-11-12T12:12:51.180Z,12.70
2022-11-12T12:16:15.146Z,12.20
2022-11-12T12:19:10.297Z,11.80
2022-11-12T12:21:59.829Z,11.70
2022-11-12T12:24:51.381Z,11.30
2022-11-12T12:27:45.511Z,11.03
2022-11-12T12:30:35.790Z,12.40
2022-11-12T12:33:31.273Z,11.17
2022-11-12T12:36:21.011Z,12.10
2022-11-12T12:39:14.996Z,12.97
2022-11-12T12:42:06.273Z,10.40
2022-11-12T12:45:04.721Z,11.27
2022-11-12T12:47:52.369Z,13.27
2022-11-12T12:50:42.505Z,12.43
2022-11-12T12:53:36.861Z,11.20
2022-11-12T12:56:49.084Z,11.13
2022-11-12T12:59:35.584Z,10.90
2022-11-12T13:02:23.710Z,11.67
2022-11-12T13:05:25.610Z,11.70
2022-11-12T13:08:19.779Z,10.30
2022-11-12T13:11:06.556Z,10.70
2022-11-12T13:13:52.841Z,10.40
2022-11-12T13:16:59.231Z,10.43
2022-11-12T13:19:48.466Z,11.10
2022-11-12T13:22:50.629Z,9.50
2022-11-12T13:25:39.891Z,11.53
2022-11-12T13:28:26.580Z,9.50
2022-11-12T13:31:28.148Z,11.60
2022-11-12T13:34:20.573Z,8.90
2022-11-12T13:37:07.458Z,9.90
2022-11-12T13:39:53.957Z,9.07
2022-11-12T13:42:50.589Z,9.57
2022-11-12T13:45:43.450Z,9.30
2022-11-12T13:48:34.370Z,9.43
2022-11-12T13:51:24.863Z,9.07
2022-11-12T13:54:32.491Z,9.47
2022-11-12T13:57:30.417Z,9.23
2022-11-12T14:00:29.364Z,9.47
2022-11-12T14:03:20.190Z,9.87
2022-11-12T14:06:16.007Z,8.70
2022-11-12T14:09:16.400Z,8.50
2022-11-12T14:12:19.644Z,9.30
2022-11-12T14:15:21.217Z,8.90
2022-11-12T14:18:18.292Z,9.70
2022-11-12T14:21:07.561Z,9.70
2022-11-12T14:23:53.900Z,9.37
2022-11-12T14:26:42.105Z,8.97
2022-11-12T14:29:34.114Z,10.53
2022-11-12T14:32:20.924Z,10.10
2022-11-12T14:35:35.264Z,10.50
2022-11-12T14:38:24.319Z,9.83
2022-11-12T14:41:17.576Z,10.53
2022-11-12T14:44:13.288Z,12.67
2022-11-12T14:47:00.607Z,11.80
2022-11-12T14:49:50.639Z,11.97
2022-11-12T14:52:43.012Z,12.57
2022-11-12T14:55:33.234Z,13.90
2022-11-12T14:58:22.022Z,12.90
2022-11-12T15:02:08.467Z,13.50
2022-11-12T15:04:38.653Z,13.87
2022-11-12T15:07:26.853Z,13.73
2022-11-12T15:10:38.222Z,12.70
2022-11-12T15:13:27.911Z,11.93
2022-11-12T15:16:20.541Z,11.97
2022-11-12T15:19:17.401Z,13.53
2022-11-12T15:22:05.483Z,12.40
2022-11-12T15:24:52.092Z,12.60
2022-11-12T15:27:42.746Z,11.97
2022-11-12T15:30:31.776Z,12.07
2022-11-12T15:33:22.785Z,11.93
2022-11-12T15:36:17.082Z,12.03
2022-11-12T15:39:03.911Z,11.17
2022-11-12T15:41:58.004Z,12.60
2022-11-12T15:44:46.864Z,13.30
2022-11-12T15:47:33.094Z,12.77
2022-11-12T15:50:22.685Z,12.77
2022-11-12T15:53:08.915Z,11.53
2022-11-12T15:55:55.236Z,14.37
2022-11-12T15:58:41.868Z,15.70
2022-11-12T16:01:29.524Z,13.20
2022-11-12T16:04:15.858Z,13.30
2022-11-12T16:07:02.581Z,16.07
2022-11-12T16:09:48.841Z,15.47
2022-11-12T16:12:35.134Z,14.83
2022-11-12T16:15:25.359Z,13.80
2022-11-12T16:18:13.562Z,15.00
2022-11-12T16:21:00.086Z,15.13
2022-11-12T16:23:46.296Z,13.80
2022-11-12T16:26:33.926Z,13.77
2022-11-12T16:29:20.654Z,12.10
2022-11-12T16:32:07.453Z,14.63
2022-11-12T16:35:00.800Z,13.30
2022-11-12T16:37:48.036Z,14.37
2022-11-12T16:40:34.642Z,14.73
2022-11-12T16:43:20.760Z,15.97
2022-11-12T16:46:15.523Z,14.90
2022-11-12T16:49:01.892Z,14.27
2022-11-12T16:51:50.486Z,13.40
2022-11-12T16:54:37.027Z,14.43
2022-11-12T16:57:23.229Z,12.77
2022-11-12T17:00:12.857Z,15.03
2022-11-12T17:02:59.427Z,12.83
2022-11-12T17:05:45.501Z,10.37
2022-11-12T17:08:34.222Z,12.30
2022-11-12T17:11:21.087Z,12.67
2022-11-12T17:14:08.735Z,11.17
2022-11-12T17:16:55.066Z,11.70
2022-11-12T17:19:41.327Z,12.40
2022-11-12T17:22:27.730Z,11.87
2022-11-12T17:25:15.560Z,12.87
2022-11-12T17:28:01.723Z,11.43
2022-11-12T17:30:47.868Z,12.77
2022-11-12T17:33:34.096Z,11.27
2022-11-12T17:36:21.738Z,10.87
2022-11-12T17:39:11.115Z,11.93
2022-11-12T17:41:58.601Z,12.33
2022-11-12T17:44:46.165Z,10.87
2022-11-12T17:47:36.641Z,11.60
2022-11-12T17:50:25.426Z,11.07
2022-11-12T17:53:11.676Z,12.30
2022-11-12T17:55:58.360Z,12.33
2022-11-12T17:58:47.152Z,13.50
2022-11-12T18:01:35.060Z,11.17
2022-11-12T18:04:23.639Z,13.87
2022-11-12T18:07:10.555Z,13.00
2022-11-12T18:09:56.780Z,11.50
2022-11-12T18:12:42.847Z,14.43
2022-11-12T18:15:31.993Z,12.50
2022-11-12T18:18:18.660Z,15.30
2022-11-12T18:21:05.829Z,13.73
2022-11-12T18:23:52.379Z,12.03
2022-11-12T18:26:39.041Z,13.10
2022-11-12T18:29:25.738Z,11.90
2022-11-12T18:32:13.772Z,12.30
2022-11-12T18:35:00.173Z,10.90
2022-11-12T18:37:46.491Z,16.13
2022-11-12T18:40:32.739Z,13.07
2022-11-12T18:43:18.918Z,14.00
2022-11-12T18:46:06.846Z,13.87
2022-11-12T18:48:54.371Z,11.77
2022-11-12T18:51:40.556Z,12.47
2022-11-12T18:54:26.870Z,13.10
2022-11-12T18:57:12.862Z,13.30
2022-11-12T18:59:59.112Z,15.13
2022-11-12T19:02:45.284Z,13.80
2022-11-12T19:05:32.987Z,14.57
2022-11-12T19:08:19.524Z,12.43
2022-11-12T19:11:08.761Z,13.27
2022-11-12T19:13:55.925Z,14.10
2022-11-12T19:16:44.680Z,14.10
2022-11-12T19:19:30.914Z,14.60
2022-11-12T19:22:18.462Z,14.40
2022-11-12T19:25:04.966Z,14.83
2022-11-12T19:27:51.381Z,15.47
2022-11-12T19:30:37.942Z,13.57
2022-11-12T19:33:26.817Z,12.80
2022-11-12T19:36:14.947Z,14.53
2022-11-12T19:39:03.358Z,14.23
2022-11-12T19:41:49.587Z,13.80
2022-11-12T19:44:35.692Z,15.00
2022-11-12T19:47:21.868Z,20.27
2022-11-12T19:50:09.761Z,16.37
2022-11-12T19:52:55.952Z,16.47
2022-11-12T19:55:43.697Z,15.20
2022-11-12T19:58:31.729Z,17.30
2022-11-12T20:01:19.556Z,17.10
2022-11-12T20:04:06.229Z,17.73
2022-11-12T20:06:52.267Z,16.40
2022-11-12T20:09:38.342Z,17.10
2022-11-12T20:12:26.415Z,16.63
2022-11-12T20:15:13.069Z,15.80
2022-11-12T20:18:00.100Z,13.03
2022-11-12T20:20:51.739Z,17.30
2022-11-12T20:23:38.984Z,16.53
2022-11-12T20:26:27.080Z,15.10
2022-11-12T20:29:14.812Z,17.20
2022-11-12T20:32:01.022Z,16.90
2022-11-12T20:34:47.242Z,14.63
2022-11-12T20:37:33.382Z,15.50
2022-11-12T20:40:19.500Z,14.83
2022-11-12T20:43:05.792Z,17.30
2022-11-12T20:45:53.669Z,15.47
2022-11-12T20:48:43.170Z,15.70
2022-11-12T20:51:30.265Z,15.33
2022-11-12T20:54:16.765Z,17.27
2022-11-12T20:57:03.292Z,17.57
2022-11-12T20:59:51.546Z,15.03
2022-11-12T21:02:39.418Z,15.60
2022-11-12T21:05:25.536Z,15.43
2022-11-12T21:08:11.744Z,15.73
2022-11-12T21:10:58.431Z,15.13
2022-11-12T21:13:45.044Z,14.70
2022-11-12T21:16:31.409Z,14.87
2022-11-12T21:19:19.226Z,12.83
2022-11-12T21:22:05.736Z,14.67
2022-11-12T21:24:51.982Z,14.47
2022-11-12T21:27:38.484Z,13.70
2022-11-12T21:30:24.760Z,15.50
2022-11-12T21:33:10.967Z,16.77
2022-11-12T21:35:59.422Z,13.00
2022-11-12T21:38:46.518Z,15.10
2022-11-12T21:41:32.956Z,15.27
2022-11-12T21:44:19.393Z,16.37
2022-11-12T21:47:05.966Z,15.00
2022-11-12T21:49:52.430Z,18.23
2022-11-12T21:52:40.041Z,15.67
2022-11-12T21:55:26.277Z,17.27
2022-11-12T21:58:12.480Z,16.50
2022-11-12T22:01:07.827Z,15.93
2022-11-12T22:03:55.993Z,16.40
2022-11-12T22:06:42.602Z,18.07
2022-11-12T22:09:36.215Z,15.53
2022-11-12T22:12:22.369Z,17.37
2022-11-12T22:15:09.314Z,14.53
2022-11-12T22:17:55.966Z,14.50
2022-11-12T22:20:42.095Z,14.90
2022-11-12T22:23:28.601Z,14.00
2022-11-12T22:26:20.573Z,16.30
2022-11-12T22:29:07.141Z,14.80
2022-11-12T22:31:53.463Z,14.70
2022-11-12T22:34:39.808Z,13.47
2022-11-12T22:37:25.999Z,13.37
2022-11-12T22:40:13.564Z,13.20
2022-11-12T22:43:01.494Z,13.10
2022-11-12T22:45:52.661Z,13.20
2022-11-12T22:48:39.783Z,13.20
2022-11-12T22:51:27.886Z,13.40
2022-11-12T22:54:15.863Z,12.77
2022-11-12T22:57:01.978Z,12.90
2022-11-12T22:59:49.517Z,13.50
2022-11-12T23:02:36.387Z,13.30
2022-11-12T23:05:22.776Z,13.00
2022-11-12T23:08:09.586Z,14.43
2022-11-12T23:10:56.344Z,15.40
2022-11-12T23:13:43.248Z,13.03
2022-11-12T23:16:31.400Z,14.43
2022-11-12T23:19:17.627Z,14.93
2022-11-12T23:22:07.708Z,14.90
2022-11-12T23:24:54.231Z,14.43
2022-11-12T23:27:40.912Z,13.50
2022-11-12T23:30:27.539Z,14.77
2022-11-12T23:33:15.299Z,14.50
2022-11-12T23:36:05.839Z,16.30
2022-11-12T23:38:52.606Z,16.30
2022-11-12T23:41:39.289Z,16.00
2022-11-12T23:44:25.553Z,15.53
2022-11-12T23:47:11.795Z,15.03
2022-11-12T23:49:59.391Z,15.43
2022-11-12T23:52:46.530Z,14.90
2022-11-12T23:55:36.052Z,14.97
2022-11-12T23:58:24.863Z,15.17
